sensor_id;sensor_type;location;lat;lon;timestamp;temperature;humidity
8188;DHT22;4135;49.184;9.722;2023-02-07T00:01:56;19.80;41.80
8188;DHT22;4135;49.184;9.722;2023-02-07T00:04:25;19.80;42.40
8188;DHT22;4135;49.184;9.722;2023-02-07T00:06:55;19.80;42.40
8188;DHT22;4135;49.184;9.722;2023-02-07T00:09:24;19.80;41.80
8188;DHT22;4135;49.184;9.722;2023-02-07T00:11:54;19.80;41.70
8188;DHT22;4135;49.184;9.722;2023-02-07T00:14:23;19.80;41.70
8188;DHT22;4135;49.184;9.722;2023-02-07T00:16:53;19.80;41.70
8188;DHT22;4135;49.184;9.722;2023-02-07T00:19:22;19.80;41.70
8188;DHT22;4135;49.184;9.722;2023-02-07T00:21:52;19.70;41.60
8188;DHT22;4135;49.184;9.722;2023-02-07T00:24:21;19.80;41.70
8188;DHT22;4135;49.184;9.722;2023-02-07T00:26:51;19.80;41.70
8188;DHT22;4135;49.184;9.722;2023-02-07T00:29:21;19.70;41.60
8188;DHT22;4135;49.184;9.722;2023-02-07T00:31:50;19.70;41.60
8188;DHT22;4135;49.184;9.722;2023-02-07T00:34:20;19.70;41.50
8188;DHT22;4135;49.184;9.722;2023-02-07T00:36:49;19.70;42.10
8188;DHT22;4135;49.184;9.722;2023-02-07T00:39:19;19.70;41.50
8188;DHT22;4135;49.184;9.722;2023-02-07T00:41:48;19.70;41.50
8188;DHT22;4135;49.184;9.722;2023-02-07T00:44:18;19.70;41.50
8188;DHT22;4135;49.184;9.722;2023-02-07T00:46:48;19.70;41.50
8188;DHT22;4135;49.184;9.722;2023-02-07T00:49:17;19.70;41.40
8188;DHT22;4135;49.184;9.722;2023-02-07T00:51:47;19.70;41.40
8188;DHT22;4135;49.184;9.722;2023-02-07T00:54:16;19.70;41.40
8188;DHT22;4135;49.184;9.722;2023-02-07T00:56:46;19.70;41.40
8188;DHT22;4135;49.184;9.722;2023-02-07T00:59:15;19.70;41.40
8188;DHT22;4135;49.184;9.722;2023-02-07T01:01:45;19.70;41.40
8188;DHT22;4135;49.184;9.722;2023-02-07T01:04:14;19.70;41.40
8188;DHT22;4135;49.184;9.722;2023-02-07T01:06:44;19.70;41.40
8188;DHT22;4135;49.184;9.722;2023-02-07T01:09:13;19.70;41.30
8188;DHT22;4135;49.184;9.722;2023-02-07T01:11:43;19.60;41.20
8188;DHT22;4135;49.184;9.722;2023-02-07T01:14:12;19.60;41.20
8188;DHT22;4135;49.184;9.722;2023-02-07T01:16:42;19.70;41.30
8188;DHT22;4135;49.184;9.722;2023-02-07T01:19:12;19.50;41.10
8188;DHT22;4135;49.184;9.722;2023-02-07T01:21:41;19.70;41.30
8188;DHT22;4135;49.184;9.722;2023-02-07T01:24:11;19.60;41.20
8188;DHT22;4135;49.184;9.722;2023-02-07T01:26:41;19.60;41.20
8188;DHT22;4135;49.184;9.722;2023-02-07T01:29:13;19.60;41.20
8188;DHT22;4135;49.184;9.722;2023-02-07T01:31:43;19.60;41.20
8188;DHT22;4135;49.184;9.722;2023-02-07T01:34:13;19.60;41.20
8188;DHT22;4135;49.184;9.722;2023-02-07T01:36:42;19.60;41.20
8188;DHT22;4135;49.184;9.722;2023-02-07T01:39:12;19.60;41.20
8188;DHT22;4135;49.184;9.722;2023-02-07T01:41:41;19.60;41.20
8188;DHT22;4135;49.184;9.722;2023-02-07T01:46:51;19.60;41.20
8188;DHT22;4135;49.184;9.722;2023-02-07T01:49:24;19.60;41.20
8188;DHT22;4135;49.184;9.722;2023-02-07T01:52:09;19.60;41.20
8188;DHT22;4135;49.184;9.722;2023-02-07T01:54:40;19.60;41.20
8188;DHT22;4135;49.184;9.722;2023-02-07T01:57:13;19.50;41.10
8188;DHT22;4135;49.184;9.722;2023-02-07T01:59:44;19.50;41.10
8188;DHT22;4135;49.184;9.722;2023-02-07T02:02:15;19.60;41.20
8188;DHT22;4135;49.184;9.722;2023-02-07T02:04:45;19.50;41.10
8188;DHT22;4135;49.184;9.722;2023-02-07T02:07:15;19.50;41.10
8188;DHT22;4135;49.184;9.722;2023-02-07T02:09:45;19.50;41.70
8188;DHT22;4135;49.184;9.722;2023-02-07T02:12:53;19.50;41.10
8188;DHT22;4135;49.184;9.722;2023-02-07T02:30:31;19.50;41.20
8188;DHT22;4135;49.184;9.722;2023-02-07T02:33:52;19.50;41.20
8188;DHT22;4135;49.184;9.722;2023-02-07T02:36:42;19.50;41.20
8188;DHT22;4135;49.184;9.722;2023-02-07T02:39:20;19.50;41.20
8188;DHT22;4135;49.184;9.722;2023-02-07T02:42:16;19.50;41.20
8188;DHT22;4135;49.184;9.722;2023-02-07T02:44:56;19.50;41.20
8188;DHT22;4135;49.184;9.722;2023-02-07T02:47:29;19.50;41.20
8188;DHT22;4135;49.184;9.722;2023-02-07T02:49:59;19.50;41.20
8188;DHT22;4135;49.184;9.722;2023-02-07T02:52:29;19.50;41.30
8188;DHT22;4135;49.184;9.722;2023-02-07T02:54:58;19.50;41.20
8188;DHT22;4135;49.184;9.722;2023-02-07T02:57:54;19.50;41.20
8188;DHT22;4135;49.184;9.722;2023-02-07T03:00:49;19.50;41.30
8188;DHT22;4135;49.184;9.722;2023-02-07T03:03:46;19.50;41.30
8188;DHT22;4135;49.184;9.722;2023-02-07T03:06:46;19.50;41.30
8188;DHT22;4135;49.184;9.722;2023-02-07T03:09:31;19.50;41.30
8188;DHT22;4135;49.184;9.722;2023-02-07T03:15:00;19.50;41.90
8188;DHT22;4135;49.184;9.722;2023-02-07T03:17:39;19.50;41.30
8188;DHT22;4135;49.184;9.722;2023-02-07T03:20:48;19.50;41.30
8188;DHT22;4135;49.184;9.722;2023-02-07T03:23:19;19.40;41.20
8188;DHT22;4135;49.184;9.722;2023-02-07T03:25:51;19.50;41.30
8188;DHT22;4135;49.184;9.722;2023-02-07T03:28:21;19.40;41.20
8188;DHT22;4135;49.184;9.722;2023-02-07T03:30:54;19.40;41.20
8188;DHT22;4135;49.184;9.722;2023-02-07T03:33:25;19.40;41.20
8188;DHT22;4135;49.184;9.722;2023-02-07T03:36:29;19.40;41.20
8188;DHT22;4135;49.184;9.722;2023-02-07T03:38:59;19.40;41.20
8188;DHT22;4135;49.184;9.722;2023-02-07T03:41:34;19.40;41.20
8188;DHT22;4135;49.184;9.722;2023-02-07T03:44:07;19.40;41.20
8188;DHT22;4135;49.184;9.722;2023-02-07T03:46:38;19.40;41.20
8188;DHT22;4135;49.184;9.722;2023-02-07T03:49:08;19.40;41.20
8188;DHT22;4135;49.184;9.722;2023-02-07T03:51:37;19.40;41.20
8188;DHT22;4135;49.184;9.722;2023-02-07T03:54:07;19.40;41.20
8188;DHT22;4135;49.184;9.722;2023-02-07T03:56:36;19.40;41.20
8188;DHT22;4135;49.184;9.722;2023-02-07T03:59:06;19.40;41.20
8188;DHT22;4135;49.184;9.722;2023-02-07T04:01:36;19.90;41.60
8188;DHT22;4135;49.184;9.722;2023-02-07T04:04:10;19.40;41.20
8188;DHT22;4135;49.184;9.722;2023-02-07T04:06:40;19.40;41.20
8188;DHT22;4135;49.184;9.722;2023-02-07T04:09:09;19.40;41.30
8188;DHT22;4135;49.184;9.722;2023-02-07T04:11:39;19.40;41.30
8188;DHT22;4135;49.184;9.722;2023-02-07T04:14:08;19.30;41.20
8188;DHT22;4135;49.184;9.722;2023-02-07T04:16:38;19.30;41.20
8188;DHT22;4135;49.184;9.722;2023-02-07T04:19:07;19.30;41.20
8188;DHT22;4135;49.184;9.722;2023-02-07T04:21:37;19.30;41.20
8188;DHT22;4135;49.184;9.722;2023-02-07T04:24:06;19.30;41.20
8188;DHT22;4135;49.184;9.722;2023-02-07T04:26:36;19.30;41.20
8188;DHT22;4135;49.184;9.722;2023-02-07T04:29:06;19.40;41.30
8188;DHT22;4135;49.184;9.722;2023-02-07T04:31:35;19.30;41.20
8188;DHT22;4135;49.184;9.722;2023-02-07T04:34:05;19.30;41.20
8188;DHT22;4135;49.184;9.722;2023-02-07T04:36:35;19.30;41.20
8188;DHT22;4135;49.184;9.722;2023-02-07T04:39:05;19.30;41.10
8188;DHT22;4135;49.184;9.722;2023-02-07T04:41:34;19.30;41.10
8188;DHT22;4135;49.184;9.722;2023-02-07T04:44:04;19.30;41.10
8188;DHT22;4135;49.184;9.722;2023-02-07T04:46:33;19.30;41.10
8188;DHT22;4135;49.184;9.722;2023-02-07T04:49:03;19.30;41.10
8188;DHT22;4135;49.184;9.722;2023-02-07T04:51:32;19.30;41.10
8188;DHT22;4135;49.184;9.722;2023-02-07T04:54:02;19.30;41.10
8188;DHT22;4135;49.184;9.722;2023-02-07T04:56:32;19.30;41.10
8188;DHT22;4135;49.184;9.722;2023-02-07T04:59:01;19.30;41.10
8188;DHT22;4135;49.184;9.722;2023-02-07T05:01:31;19.30;41.10
8188;DHT22;4135;49.184;9.722;2023-02-07T05:04:01;19.30;41.00
8188;DHT22;4135;49.184;9.722;2023-02-07T05:06:30;19.30;41.00
8188;DHT22;4135;49.184;9.722;2023-02-07T05:09:00;19.30;41.00
8188;DHT22;4135;49.184;9.722;2023-02-07T05:11:29;19.30;41.00
8188;DHT22;4135;49.184;9.722;2023-02-07T05:13:59;19.30;41.00
8188;DHT22;4135;49.184;9.722;2023-02-07T05:16:28;19.30;41.00
8188;DHT22;4135;49.184;9.722;2023-02-07T05:18:58;19.30;41.00
8188;DHT22;4135;49.184;9.722;2023-02-07T05:21:27;19.30;41.00
8188;DHT22;4135;49.184;9.722;2023-02-07T05:23:57;19.30;41.00
8188;DHT22;4135;49.184;9.722;2023-02-07T05:26:26;19.30;41.00
8188;DHT22;4135;49.184;9.722;2023-02-07T05:28:56;19.30;41.10
8188;DHT22;4135;49.184;9.722;2023-02-07T05:31:25;19.30;41.60
8188;DHT22;4135;49.184;9.722;2023-02-07T05:34:15;19.30;41.10
8188;DHT22;4135;49.184;9.722;2023-02-07T05:36:44;19.30;41.00
8188;DHT22;4135;49.184;9.722;2023-02-07T05:39:14;19.80;41.50
8188;DHT22;4135;49.184;9.722;2023-02-07T05:41:43;19.40;41.10
8188;DHT22;4135;49.184;9.722;2023-02-07T05:44:13;19.40;41.10
8188;DHT22;4135;49.184;9.722;2023-02-07T05:46:42;19.40;41.10
8188;DHT22;4135;49.184;9.722;2023-02-07T05:49:12;19.40;41.10
8188;DHT22;4135;49.184;9.722;2023-02-07T05:51:41;19.40;41.10
8188;DHT22;4135;49.184;9.722;2023-02-07T05:54:11;19.40;41.10
8188;DHT22;4135;49.184;9.722;2023-02-07T05:56:40;19.40;41.10
8188;DHT22;4135;49.184;9.722;2023-02-07T05:59:10;19.40;41.00
8188;DHT22;4135;49.184;9.722;2023-02-07T06:01:39;19.40;41.00
8188;DHT22;4135;49.184;9.722;2023-02-07T06:04:09;19.40;41.00
8188;DHT22;4135;49.184;9.722;2023-02-07T06:06:38;19.40;41.00
8188;DHT22;4135;49.184;9.722;2023-02-07T06:09:08;19.50;41.10
8188;DHT22;4135;49.184;9.722;2023-02-07T06:11:37;19.50;41.10
8188;DHT22;4135;49.184;9.722;2023-02-07T06:14:07;19.50;41.10
8188;DHT22;4135;49.184;9.722;2023-02-07T06:16:36;19.50;41.10
8188;DHT22;4135;49.184;9.722;2023-02-07T06:19:06;19.50;41.10
8188;DHT22;4135;49.184;9.722;2023-02-07T06:21:35;19.50;41.10
8188;DHT22;4135;49.184;9.722;2023-02-07T06:24:05;19.50;41.10
8188;DHT22;4135;49.184;9.722;2023-02-07T06:26:36;19.50;41.00
8188;DHT22;4135;49.184;9.722;2023-02-07T06:29:06;19.40;40.90
8188;DHT22;4135;49.184;9.722;2023-02-07T06:31:35;19.50;41.00
8188;DHT22;4135;49.184;9.722;2023-02-07T06:34:05;19.50;41.00
8188;DHT22;4135;49.184;9.722;2023-02-07T06:36:35;19.50;41.00
8188;DHT22;4135;49.184;9.722;2023-02-07T06:39:04;19.50;41.00
8188;DHT22;4135;49.184;9.722;2023-02-07T06:41:34;19.50;41.00
8188;DHT22;4135;49.184;9.722;2023-02-07T06:44:04;19.50;41.00
8188;DHT22;4135;49.184;9.722;2023-02-07T06:46:33;19.50;41.00
8188;DHT22;4135;49.184;9.722;2023-02-07T06:49:03;19.50;41.00
8188;DHT22;4135;49.184;9.722;2023-02-07T06:51:33;19.50;41.00
8188;DHT22;4135;49.184;9.722;2023-02-07T06:54:02;19.50;40.90
8188;DHT22;4135;49.184;9.722;2023-02-07T06:56:37;19.50;40.90
8188;DHT22;4135;49.184;9.722;2023-02-07T06:59:06;19.50;40.90
8188;DHT22;4135;49.184;9.722;2023-02-07T07:01:36;19.50;40.90
8188;DHT22;4135;49.184;9.722;2023-02-07T07:04:05;19.50;40.90
8188;DHT22;4135;49.184;9.722;2023-02-07T07:06:35;19.50;40.90
8188;DHT22;4135;49.184;9.722;2023-02-07T07:09:04;19.50;41.00
8188;DHT22;4135;49.184;9.722;2023-02-07T07:11:35;19.50;40.90
8188;DHT22;4135;49.184;9.722;2023-02-07T07:14:04;19.50;40.90
8188;DHT22;4135;49.184;9.722;2023-02-07T07:16:34;19.50;41.00
8188;DHT22;4135;49.184;9.722;2023-02-07T07:19:03;19.60;41.10
8188;DHT22;4135;49.184;9.722;2023-02-07T07:21:33;19.50;41.00
8188;DHT22;4135;49.184;9.722;2023-02-07T07:24:03;19.50;41.00
8188;DHT22;4135;49.184;9.722;2023-02-07T07:26:32;19.60;41.10
8188;DHT22;4135;49.184;9.722;2023-02-07T07:29:02;19.60;41.10
8188;DHT22;4135;49.184;9.722;2023-02-07T07:31:33;19.60;41.20
8188;DHT22;4135;49.184;9.722;2023-02-07T07:34:02;19.60;41.20
8188;DHT22;4135;49.184;9.722;2023-02-07T07:36:32;19.70;41.30
8188;DHT22;4135;49.184;9.722;2023-02-07T07:39:02;19.70;41.40
8188;DHT22;4135;49.184;9.722;2023-02-07T07:41:32;19.70;41.40
8188;DHT22;4135;49.184;9.722;2023-02-07T07:44:01;19.80;41.50
8188;DHT22;4135;49.184;9.722;2023-02-07T07:46:31;19.80;41.50
8188;DHT22;4135;49.184;9.722;2023-02-07T07:49:01;19.80;41.60
8188;DHT22;4135;49.184;9.722;2023-02-07T07:51:30;19.80;41.60
8188;DHT22;4135;49.184;9.722;2023-02-07T07:54:00;19.80;41.60
8188;DHT22;4135;49.184;9.722;2023-02-07T07:56:30;20.40;42.10
8188;DHT22;4135;49.184;9.722;2023-02-07T07:59:00;19.90;41.70
8188;DHT22;4135;49.184;9.722;2023-02-07T08:01:30;19.90;41.70
8188;DHT22;4135;49.184;9.722;2023-02-07T08:03:59;20.00;41.70
8188;DHT22;4135;49.184;9.722;2023-02-07T08:06:30;20.00;41.80
8188;DHT22;4135;49.184;9.722;2023-02-07T08:08:59;20.00;41.70
8188;DHT22;4135;49.184;9.722;2023-02-07T08:11:29;20.00;41.70
8188;DHT22;4135;49.184;9.722;2023-02-07T08:13:58;20.00;41.70
8188;DHT22;4135;49.184;9.722;2023-02-07T08:16:28;20.10;41.80
8188;DHT22;4135;49.184;9.722;2023-02-07T08:18:57;20.00;41.60
8188;DHT22;4135;49.184;9.722;2023-02-07T08:21:27;20.10;41.70
8188;DHT22;4135;49.184;9.722;2023-02-07T08:23:56;20.10;41.70
8188;DHT22;4135;49.184;9.722;2023-02-07T08:26:26;20.10;41.70
8188;DHT22;4135;49.184;9.722;2023-02-07T08:28:55;20.10;41.70
8188;DHT22;4135;49.184;9.722;2023-02-07T08:31:25;20.20;41.70
8188;DHT22;4135;49.184;9.722;2023-02-07T08:33:54;20.20;41.70
8188;DHT22;4135;49.184;9.722;2023-02-07T08:36:24;20.20;41.70
8188;DHT22;4135;49.184;9.722;2023-02-07T08:38:53;20.20;41.70
8188;DHT22;4135;49.184;9.722;2023-02-07T08:41:23;20.20;41.70
8188;DHT22;4135;49.184;9.722;2023-02-07T08:43:52;20.30;41.80
8188;DHT22;4135;49.184;9.722;2023-02-07T08:46:22;20.30;41.80
8188;DHT22;4135;49.184;9.722;2023-02-07T08:48:51;20.30;41.80
8188;DHT22;4135;49.184;9.722;2023-02-07T08:51:21;20.40;42.00
8188;DHT22;4135;49.184;9.722;2023-02-07T08:53:52;20.40;41.90
8188;DHT22;4135;49.184;9.722;2023-02-07T08:56:21;20.40;42.00
8188;DHT22;4135;49.184;9.722;2023-02-07T08:58:51;20.40;42.10
8188;DHT22;4135;49.184;9.722;2023-02-07T09:01:20;20.50;42.20
8188;DHT22;4135;49.184;9.722;2023-02-07T09:03:50;20.50;42.20
8188;DHT22;4135;49.184;9.722;2023-02-07T09:06:20;20.50;42.20
8188;DHT22;4135;49.184;9.722;2023-02-07T09:08:50;20.50;42.30
8188;DHT22;4135;49.184;9.722;2023-02-07T09:11:19;20.50;42.30
8188;DHT22;4135;49.184;9.722;2023-02-07T09:13:49;20.50;42.40
8188;DHT22;4135;49.184;9.722;2023-02-07T09:16:18;20.50;42.40
8188;DHT22;4135;49.184;9.722;2023-02-07T09:18:48;20.50;42.40
8188;DHT22;4135;49.184;9.722;2023-02-07T09:21:18;20.50;42.50
8188;DHT22;4135;49.184;9.722;2023-02-07T09:23:48;20.50;42.50
8188;DHT22;4135;49.184;9.722;2023-02-07T09:26:20;20.60;42.60
8188;DHT22;4135;49.184;9.722;2023-02-07T09:28:50;20.60;42.50
8188;DHT22;4135;49.184;9.722;2023-02-07T09:31:19;20.60;42.50
8188;DHT22;4135;49.184;9.722;2023-02-07T09:33:50;20.60;42.50
8188;DHT22;4135;49.184;9.722;2023-02-07T09:36:22;20.60;42.50
8188;DHT22;4135;49.184;9.722;2023-02-07T09:38:52;20.50;42.40
8188;DHT22;4135;49.184;9.722;2023-02-07T09:41:43;20.60;42.40
8188;DHT22;4135;49.184;9.722;2023-02-07T09:44:40;20.50;42.20
8188;DHT22;4135;49.184;9.722;2023-02-07T09:52:28;20.40;41.50
8188;DHT22;4135;49.184;9.722;2023-02-07T09:54:59;20.40;41.90
8188;DHT22;4135;49.184;9.722;2023-02-07T09:57:37;20.50;41.20
8188;DHT22;4135;49.184;9.722;2023-02-07T10:03:21;20.50;41.00
8188;DHT22;4135;49.184;9.722;2023-02-07T10:08:25;20.50;40.80
8188;DHT22;4135;49.184;9.722;2023-02-07T10:14:00;20.50;40.40
8188;DHT22;4135;49.184;9.722;2023-02-07T10:19:35;20.50;40.30
8188;DHT22;4135;49.184;9.722;2023-02-07T10:25:13;20.50;40.10
8188;DHT22;4135;49.184;9.722;2023-02-07T10:30:32;20.50;40.10
8188;DHT22;4135;49.184;9.722;2023-02-07T10:33:13;20.50;40.10
8188;DHT22;4135;49.184;9.722;2023-02-07T10:35:44;20.60;40.10
8188;DHT22;4135;49.184;9.722;2023-02-07T10:38:28;20.60;40.10
8188;DHT22;4135;49.184;9.722;2023-02-07T10:41:02;20.60;40.10
8188;DHT22;4135;49.184;9.722;2023-02-07T10:43:34;20.60;40.10
8188;DHT22;4135;49.184;9.722;2023-02-07T10:46:07;20.60;40.10
8188;DHT22;4135;49.184;9.722;2023-02-07T10:48:39;20.60;40.10
8188;DHT22;4135;49.184;9.722;2023-02-07T10:56:33;20.60;40.70
8188;DHT22;4135;49.184;9.722;2023-02-07T10:59:22;20.60;40.10
8188;DHT22;4135;49.184;9.722;2023-02-07T11:01:55;20.60;40.10
8188;DHT22;4135;49.184;9.722;2023-02-07T11:04:36;20.60;40.10
8188;DHT22;4135;49.184;9.722;2023-02-07T11:07:06;20.60;40.10
8188;DHT22;4135;49.184;9.722;2023-02-07T11:09:36;20.60;40.10
8188;DHT22;4135;49.184;9.722;2023-02-07T11:12:16;20.60;40.10
8188;DHT22;4135;49.184;9.722;2023-02-07T11:15:02;20.60;40.10
8188;DHT22;4135;49.184;9.722;2023-02-07T11:17:33;20.60;40.10
8188;DHT22;4135;49.184;9.722;2023-02-07T11:20:04;20.60;40.10
8188;DHT22;4135;49.184;9.722;2023-02-07T11:22:35;20.60;40.10
8188;DHT22;4135;49.184;9.722;2023-02-07T11:25:05;20.60;40.10
8188;DHT22;4135;49.184;9.722;2023-02-07T11:27:39;20.60;40.10
8188;DHT22;4135;49.184;9.722;2023-02-07T11:30:18;20.60;40.10
8188;DHT22;4135;49.184;9.722;2023-02-07T11:32:58;20.60;40.10
8188;DHT22;4135;49.184;9.722;2023-02-07T11:35:28;20.50;40.10
8188;DHT22;4135;49.184;9.722;2023-02-07T11:38:00;20.50;40.10
8188;DHT22;4135;49.184;9.722;2023-02-07T11:40:37;20.60;40.10
8188;DHT22;4135;49.184;9.722;2023-02-07T11:43:15;20.60;40.10
8188;DHT22;4135;49.184;9.722;2023-02-07T11:45:47;20.60;40.10
8188;DHT22;4135;49.184;9.722;2023-02-07T11:48:27;20.60;40.10
8188;DHT22;4135;49.184;9.722;2023-02-07T11:51:00;20.60;40.10
8188;DHT22;4135;49.184;9.722;2023-02-07T11:53:38;20.60;40.10
8188;DHT22;4135;49.184;9.722;2023-02-07T11:56:34;20.60;40.10
8188;DHT22;4135;49.184;9.722;2023-02-07T11:59:17;20.60;40.10
8188;DHT22;4135;49.184;9.722;2023-02-07T12:01:56;20.60;40.10
8188;DHT22;4135;49.184;9.722;2023-02-07T12:04:34;20.60;40.10
8188;DHT22;4135;49.184;9.722;2023-02-07T12:09:54;20.60;40.00
8188;DHT22;4135;49.184;9.722;2023-02-07T12:12:39;20.70;40.10
8188;DHT22;4135;49.184;9.722;2023-02-07T12:15:18;20.70;40.10
8188;DHT22;4135;49.184;9.722;2023-02-07T12:20:27;20.70;40.10
8188;DHT22;4135;49.184;9.722;2023-02-07T12:26:12;20.60;40.00
8188;DHT22;4135;49.184;9.722;2023-02-07T12:29:14;20.70;40.10
8188;DHT22;4135;49.184;9.722;2023-02-07T12:34:33;20.60;40.00
8188;DHT22;4135;49.184;9.722;2023-02-07T12:40:24;20.60;40.00
8188;DHT22;4135;49.184;9.722;2023-02-07T12:46:13;20.70;40.10
8188;DHT22;4135;49.184;9.722;2023-02-07T12:58:19;20.60;40.00
8188;DHT22;4135;49.184;9.722;2023-02-07T13:06:58;20.70;39.80
8188;DHT22;4135;49.184;9.722;2023-02-07T13:10:30;20.70;39.80
8188;DHT22;4135;49.184;9.722;2023-02-07T13:21:38;20.80;39.90
8188;DHT22;4135;49.184;9.722;2023-02-07T13:24:15;20.80;40.00
8188;DHT22;4135;49.184;9.722;2023-02-07T13:26:59;20.80;40.70
8188;DHT22;4135;49.184;9.722;2023-02-07T13:29:33;20.80;40.10
8188;DHT22;4135;49.184;9.722;2023-02-07T13:32:12;20.80;40.10
8188;DHT22;4135;49.184;9.722;2023-02-07T13:37:57;20.90;40.30
8188;DHT22;4135;49.184;9.722;2023-02-07T13:49:36;20.80;40.50
8188;DHT22;4135;49.184;9.722;2023-02-07T13:52:22;20.90;40.70
8188;DHT22;4135;49.184;9.722;2023-02-07T13:54:57;20.90;40.80
8188;DHT22;4135;49.184;9.722;2023-02-07T14:00:25;20.90;40.90
8188;DHT22;4135;49.184;9.722;2023-02-07T14:02:59;20.90;40.90
8188;DHT22;4135;49.184;9.722;2023-02-07T14:05:32;20.90;41.00
8188;DHT22;4135;49.184;9.722;2023-02-07T14:08:22;21.00;41.10
8188;DHT22;4135;49.184;9.722;2023-02-07T14:10:56;20.90;41.10
8188;DHT22;4135;49.184;9.722;2023-02-07T14:16:07;21.00;41.30
8188;DHT22;4135;49.184;9.722;2023-02-07T14:18:41;21.00;41.30
8188;DHT22;4135;49.184;9.722;2023-02-07T14:32:23;21.10;41.60
8188;DHT22;4135;49.184;9.722;2023-02-07T14:37:52;21.20;41.80
8188;DHT22;4135;49.184;9.722;2023-02-07T14:40:26;21.20;41.90
8188;DHT22;4135;49.184;9.722;2023-02-07T14:45:34;21.20;41.90
8188;DHT22;4135;49.184;9.722;2023-02-07T14:48:06;21.20;41.90
8188;DHT22;4135;49.184;9.722;2023-02-07T14:50:55;21.10;41.80
8188;DHT22;4135;49.184;9.722;2023-02-07T14:53:24;21.20;41.90
8188;DHT22;4135;49.184;9.722;2023-02-07T14:55:59;21.20;41.80
8188;DHT22;4135;49.184;9.722;2023-02-07T14:58:39;21.20;41.80
8188;DHT22;4135;49.184;9.722;2023-02-07T15:01:13;21.20;41.80
8188;DHT22;4135;49.184;9.722;2023-02-07T15:03:45;21.20;41.90
8188;DHT22;4135;49.184;9.722;2023-02-07T15:06:18;21.20;41.90
8188;DHT22;4135;49.184;9.722;2023-02-07T15:08:56;21.20;42.00
8188;DHT22;4135;49.184;9.722;2023-02-07T15:11:27;21.30;42.30
8188;DHT22;4135;49.184;9.722;2023-02-07T15:14:00;21.40;42.30
8188;DHT22;4135;49.184;9.722;2023-02-07T15:16:32;21.30;42.20
8188;DHT22;4135;49.184;9.722;2023-02-07T15:21:47;21.30;42.10
8188;DHT22;4135;49.184;9.722;2023-02-07T15:24:37;21.30;42.10
8188;DHT22;4135;49.184;9.722;2023-02-07T15:27:19;21.40;42.10
8188;DHT22;4135;49.184;9.722;2023-02-07T15:29:57;21.40;42.10
8188;DHT22;4135;49.184;9.722;2023-02-07T15:32:32;21.40;42.00
8188;DHT22;4135;49.184;9.722;2023-02-07T15:35:24;21.40;42.00
8188;DHT22;4135;49.184;9.722;2023-02-07T15:38:16;21.40;42.00
8188;DHT22;4135;49.184;9.722;2023-02-07T15:40:46;21.40;42.20
8188;DHT22;4135;49.184;9.722;2023-02-07T15:43:31;21.40;42.10
8188;DHT22;4135;49.184;9.722;2023-02-07T15:46:11;21.40;42.10
8188;DHT22;4135;49.184;9.722;2023-02-07T15:48:48;21.40;42.20
8188;DHT22;4135;49.184;9.722;2023-02-07T15:51:21;21.40;42.20
8188;DHT22;4135;49.184;9.722;2023-02-07T15:53:55;21.40;42.20
8188;DHT22;4135;49.184;9.722;2023-02-07T15:56:26;21.40;42.20
8188;DHT22;4135;49.184;9.722;2023-02-07T15:59:00;21.40;42.10
8188;DHT22;4135;49.184;9.722;2023-02-07T16:01:37;21.30;41.50
8188;DHT22;4135;49.184;9.722;2023-02-07T16:04:07;21.20;41.30
8188;DHT22;4135;49.184;9.722;2023-02-07T16:07:02;21.20;41.30
8188;DHT22;4135;49.184;9.722;2023-02-07T16:09:41;21.20;41.10
8188;DHT22;4135;49.184;9.722;2023-02-07T16:12:43;21.10;40.90
8188;DHT22;4135;49.184;9.722;2023-02-07T16:15:29;21.10;40.60
8188;DHT22;4135;49.184;9.722;2023-02-07T16:18:02;21.00;40.20
8188;DHT22;4135;49.184;9.722;2023-02-07T16:20:34;21.00;40.00
8188;DHT22;4135;49.184;9.722;2023-02-07T16:23:07;21.00;39.80
8188;DHT22;4135;49.184;9.722;2023-02-07T16:25:37;20.90;39.60
8188;DHT22;4135;49.184;9.722;2023-02-07T16:28:11;20.90;39.60
8188;DHT22;4135;49.184;9.722;2023-02-07T16:30:42;20.90;39.50
8188;DHT22;4135;49.184;9.722;2023-02-07T16:33:12;21.00;39.60
8188;DHT22;4135;49.184;9.722;2023-02-07T16:35:41;20.90;39.50
8188;DHT22;4135;49.184;9.722;2023-02-07T16:38:11;20.90;39.50
8188;DHT22;4135;49.184;9.722;2023-02-07T16:40:41;20.80;39.30
8188;DHT22;4135;49.184;9.722;2023-02-07T16:43:28;20.80;39.20
8188;DHT22;4135;49.184;9.722;2023-02-07T16:46:01;20.80;39.10
8188;DHT22;4135;49.184;9.722;2023-02-07T16:48:31;20.80;39.10
8188;DHT22;4135;49.184;9.722;2023-02-07T16:51:01;20.80;39.00
8188;DHT22;4135;49.184;9.722;2023-02-07T16:53:30;20.80;39.00
8188;DHT22;4135;49.184;9.722;2023-02-07T16:56:01;20.80;39.00
8188;DHT22;4135;49.184;9.722;2023-02-07T16:58:31;20.80;39.60
8188;DHT22;4135;49.184;9.722;2023-02-07T17:01:02;20.80;38.40
8188;DHT22;4135;49.184;9.722;2023-02-07T17:03:32;20.70;38.40
8188;DHT22;4135;49.184;9.722;2023-02-07T17:06:02;20.70;38.40
8188;DHT22;4135;49.184;9.722;2023-02-07T17:08:33;20.70;38.40
8188;DHT22;4135;49.184;9.722;2023-02-07T17:11:03;20.70;38.40
8188;DHT22;4135;49.184;9.722;2023-02-07T17:13:34;20.70;38.40
8188;DHT22;4135;49.184;9.722;2023-02-07T17:16:04;20.70;38.40
8188;DHT22;4135;49.184;9.722;2023-02-07T17:18:33;20.70;38.50
8188;DHT22;4135;49.184;9.722;2023-02-07T17:21:03;20.70;38.50
8188;DHT22;4135;49.184;9.722;2023-02-07T17:23:33;20.70;38.50
8188;DHT22;4135;49.184;9.722;2023-02-07T17:26:04;20.70;38.50
8188;DHT22;4135;49.184;9.722;2023-02-07T17:28:34;20.70;38.40
8188;DHT22;4135;49.184;9.722;2023-02-07T17:31:05;20.70;38.40
8188;DHT22;4135;49.184;9.722;2023-02-07T17:33:34;20.70;38.50
8188;DHT22;4135;49.184;9.722;2023-02-07T17:36:04;20.70;38.50
8188;DHT22;4135;49.184;9.722;2023-02-07T17:38:34;20.70;38.50
8188;DHT22;4135;49.184;9.722;2023-02-07T17:41:04;20.70;38.50
8188;DHT22;4135;49.184;9.722;2023-02-07T17:43:33;20.60;38.40
8188;DHT22;4135;49.184;9.722;2023-02-07T17:46:04;20.70;38.50
8188;DHT22;4135;49.184;9.722;2023-02-07T17:48:33;20.70;38.50
8188;DHT22;4135;49.184;9.722;2023-02-07T17:51:03;20.70;38.40
8188;DHT22;4135;49.184;9.722;2023-02-07T17:53:32;20.60;38.20
8188;DHT22;4135;49.184;9.722;2023-02-07T17:56:02;20.60;38.10
8188;DHT22;4135;49.184;9.722;2023-02-07T17:58:32;20.60;38.10
8188;DHT22;4135;49.184;9.722;2023-02-07T18:01:06;20.60;38.10
8188;DHT22;4135;49.184;9.722;2023-02-07T18:03:35;20.60;38.10
8188;DHT22;4135;49.184;9.722;2023-02-07T18:06:05;20.60;38.10
8188;DHT22;4135;49.184;9.722;2023-02-07T18:08:34;20.60;38.20
8188;DHT22;4135;49.184;9.722;2023-02-07T18:11:04;20.50;38.10
8188;DHT22;4135;49.184;9.722;2023-02-07T18:13:35;20.50;38.20
8188;DHT22;4135;49.184;9.722;2023-02-07T18:16:06;20.50;38.20
8188;DHT22;4135;49.184;9.722;2023-02-07T18:18:36;20.60;38.40
8188;DHT22;4135;49.184;9.722;2023-02-07T18:21:07;20.50;38.40
8188;DHT22;4135;49.184;9.722;2023-02-07T18:23:36;20.50;38.40
8188;DHT22;4135;49.184;9.722;2023-02-07T18:26:06;20.50;38.50
8188;DHT22;4135;49.184;9.722;2023-02-07T18:28:35;20.50;38.50
8188;DHT22;4135;49.184;9.722;2023-02-07T18:31:13;20.50;38.50
8188;DHT22;4135;49.184;9.722;2023-02-07T18:33:43;20.50;38.60
8188;DHT22;4135;49.184;9.722;2023-02-07T18:36:13;20.50;38.60
8188;DHT22;4135;49.184;9.722;2023-02-07T18:38:43;20.50;38.70
8188;DHT22;4135;49.184;9.722;2023-02-07T18:41:15;20.60;38.70
8188;DHT22;4135;49.184;9.722;2023-02-07T18:43:45;20.60;38.80
8188;DHT22;4135;49.184;9.722;2023-02-07T18:46:18;20.60;38.80
8188;DHT22;4135;49.184;9.722;2023-02-07T18:48:53;20.70;38.90